Time;durP1;ratioP1;P1;durP2;ratioP2;P2;SDS_P1;SDS_P2;PMS_P1;PMS_P2;Temp;Humidity;BMP_temperature;BMP_pressure;BME280_temperature;BME280_humidity;BME280_pressure;Samples;Min_cycle;Max_cycle;Signal;HPM_P1;HPM_P2
2022/04/02 00:00:55;;;;;;;6.75;2.95;;;4.60;99.90;;;;;;5012866;28;20029;-65
2022/04/02 00:03:22;;;;;;;5.05;2.75;;;4.60;99.90;;;;;;5010450;28;20101;-65
2022/04/02 00:05:48;;;;;;;8.65;3.83;;;4.50;99.90;;;;;;5020441;28;20034;-66
2022/04/02 00:08:13;;;;;;;6.68;3.17;;;4.60;99.90;;;;;;5010096;28;20033;-65
2022/04/02 00:10:39;;;;;;;4.95;2.53;;;4.60;99.90;;;;;;5023842;28;20481;-65
2022/04/02 00:13:04;;;;;;;8.55;2.50;;;4.60;99.90;;;;;;5025704;28;20022;-66
2022/04/02 00:15:30;;;;;;;6.70;1.92;;;4.60;99.90;;;;;;5012117;28;20107;-64
2022/04/02 00:17:56;;;;;;;16.35;4.72;;;4.60;99.90;;;;;;5019371;28;20038;-64
2022/04/02 00:20:22;;;;;;;8.43;3.40;;;4.60;99.90;;;;;;5015618;28;20028;-65
2022/04/02 00:25:32;;;;;;;6.80;3.03;;;4.70;99.90;;;;;;5019060;28;20061;-64
2022/04/02 00:27:58;;;;;;;5.75;2.83;;;4.70;99.90;;;;;;5019334;28;20029;-64
2022/04/02 00:30:24;;;;;;;6.90;2.53;;;4.60;99.90;;;;;;5018990;28;20049;-63
2022/04/02 00:32:49;;;;;;;8.45;2.70;;;4.60;99.90;;;;;;5025492;28;20437;-66
2022/04/02 00:35:15;;;;;;;5.47;2.60;;;4.60;99.90;;;;;;5015784;28;20437;-65
2022/04/02 00:37:41;;;;;;;7.47;2.30;;;4.60;99.90;;;;;;5024853;28;20029;-63
2022/04/02 00:40:07;;;;;;;5.32;2.33;;;4.60;99.90;;;;;;5029004;28;20041;-64
2022/04/02 00:42:33;;;;;;;6.60;1.98;;;4.60;99.90;;;;;;5017767;28;20022;-66
2022/04/02 00:44:59;;;;;;;9.15;3.60;;;4.50;99.90;;;;;;5012612;28;20532;-65
2022/04/02 00:47:24;;;;;;;11.63;2.95;;;4.50;99.90;;;;;;5013773;28;20030;-65
2022/04/02 00:49:51;;;;;;;6.68;2.70;;;4.50;99.90;;;;;;5013869;28;20041;-64
2022/04/02 00:52:18;;;;;;;10.32;3.35;;;4.40;99.90;;;;;;5013962;28;20079;-65
2022/04/02 00:54:44;;;;;;;10.95;3.50;;;4.40;99.90;;;;;;5013614;28;20100;-65
2022/04/02 00:57:09;;;;;;;8.20;2.38;;;4.30;99.90;;;;;;5014145;28;20037;-66
2022/04/02 00:59:35;;;;;;;9.30;3.40;;;4.30;99.90;;;;;;5013640;28;20533;-65
2022/04/02 01:02:01;;;;;;;5.50;2.40;;;4.30;99.90;;;;;;5012940;28;20117;-65
2022/04/02 01:04:27;;;;;;;4.32;2.33;;;4.30;99.90;;;;;;5012483;28;20127;-64
2022/04/02 01:06:53;;;;;;;7.22;3.38;;;4.20;99.90;;;;;;5013481;28;20029;-66
2022/04/02 01:09:19;;;;;;;7.70;3.17;;;4.20;99.90;;;;;;5013503;28;20069;-65
2022/04/02 01:11:45;;;;;;;4.60;2.10;;;4.20;99.90;;;;;;5013975;28;20061;-66
2022/04/02 01:14:11;;;;;;;6.13;3.40;;;4.20;99.90;;;;;;5013694;28;20113;-65
2022/04/02 01:16:37;;;;;;;6.72;3.05;;;4.20;99.90;;;;;;5013592;28;20036;-64
2022/04/02 01:19:04;;;;;;;6.20;2.75;;;4.10;99.90;;;;;;5013880;28;20026;-64
2022/04/02 01:21:31;;;;;;;6.50;3.13;;;4.20;99.90;;;;;;5012974;28;20030;-66
2022/04/02 01:23:58;;;;;;;8.88;4.05;;;4.10;99.90;;;;;;5012863;28;20405;-66
2022/04/02 01:26:25;;;;;;;10.80;3.65;;;4.20;99.90;;;;;;5013608;28;20046;-66
2022/04/02 01:28:54;;;;;;;8.25;3.28;;;4.10;99.90;;;;;;5013514;28;20114;-65
2022/04/02 01:31:21;;;;;;;4.32;2.20;;;4.10;99.90;;;;;;5013204;28;20037;-65
2022/04/02 01:33:48;;;;;;;5.95;2.50;;;4.10;99.90;;;;;;5013569;28;20091;-64
2022/04/02 01:36:14;;;;;;;12.77;4.05;;;4.10;99.90;;;;;;5012802;28;20470;-64
2022/04/02 01:38:40;;;;;;;10.18;3.20;;;4.10;99.90;;;;;;5010498;28;20036;-66
2022/04/02 01:41:06;;;;;;;5.15;2.63;;;4.10;99.90;;;;;;5013510;28;20117;-64
2022/04/02 01:43:32;;;;;;;10.00;2.80;;;4.10;99.90;;;;;;5012622;28;20041;-65
2022/04/02 01:45:59;;;;;;;9.45;2.80;;;4.10;99.90;;;;;;5012613;28;20026;-63
2022/04/02 01:48:24;;;;;;;7.60;3.22;;;4.10;99.90;;;;;;5011908;28;20034;-66
2022/04/02 01:50:51;;;;;;;8.68;2.80;;;4.10;99.90;;;;;;5011776;28;20125;-65
2022/04/02 01:53:18;;;;;;;6.07;2.70;;;4.10;99.90;;;;;;5012648;28;20053;-66
2022/04/02 01:55:44;;;;;;;7.25;2.47;;;4.10;99.90;;;;;;5010763;28;20128;-66
2022/04/02 01:58:10;;;;;;;8.38;2.38;;;4.10;99.90;;;;;;5012404;28;20034;-65
2022/04/02 02:00:36;;;;;;;9.60;3.05;;;4.10;99.90;;;;;;5011729;28;20056;-65
2022/04/02 02:03:02;;;;;;;8.32;3.08;;;4.10;99.90;;;;;;5012619;28;20037;-65
2022/04/02 02:05:28;;;;;;;7.45;2.47;;;4.10;99.90;;;;;;5012404;28;20029;-63
2022/04/02 02:07:54;;;;;;;6.70;2.28;;;4.20;99.90;;;;;;5012805;28;20026;-64
2022/04/02 02:10:21;;;;;;;5.40;2.60;;;4.20;99.90;;;;;;5012579;28;20040;-65
2022/04/02 02:12:46;;;;;;;6.13;2.42;;;4.20;99.90;;;;;;5012428;28;20458;-65
2022/04/02 02:15:16;;;;;;;4.18;2.15;;;4.20;99.90;;;;;;5011704;28;20057;-64
2022/04/02 02:17:49;;;;;;;5.28;2.13;;;4.30;99.90;;;;;;5011989;28;20022;-63
2022/04/02 02:20:17;;;;;;;9.48;3.13;;;4.30;99.90;;;;;;5012191;28;20145;-64
2022/04/02 02:22:44;;;;;;;6.53;2.03;;;4.30;99.90;;;;;;5012951;28;20084;-63
2022/04/02 02:25:12;;;;;;;8.55;2.40;;;4.30;99.90;;;;;;5011227;28;20030;-65
2022/04/02 02:27:40;;;;;;;5.85;2.20;;;4.40;99.90;;;;;;4992788;28;20049;-64
2022/04/02 02:30:07;;;;;;;4.90;2.00;;;4.40;99.90;;;;;;5008129;28;20084;-65
2022/04/02 02:32:36;;;;;;;4.18;2.22;;;4.40;99.90;;;;;;5012346;28;20467;-66
2022/04/02 02:38:06;;;;;;;5.03;1.88;;;4.40;99.90;;;;;;5016140;28;20065;-64
2022/04/02 02:40:32;;;;;;;5.82;1.95;;;4.30;99.90;;;;;;5016711;28;20044;-65
2022/04/02 02:42:57;;;;;;;5.28;2.33;;;4.40;99.90;;;;;;5015290;28;20041;-66
2022/04/02 02:45:23;;;;;;;10.13;2.60;;;4.40;99.90;;;;;;5015219;28;20144;-65
2022/04/02 02:47:49;;;;;;;5.97;2.22;;;4.30;99.90;;;;;;5016394;28;20026;-64
2022/04/02 02:50:14;;;;;;;8.15;2.92;;;4.40;99.90;;;;;;5015898;28;20474;-65
2022/04/02 02:52:40;;;;;;;4.78;2.55;;;4.40;99.90;;;;;;5016160;28;20037;-64
2022/04/02 02:55:06;;;;;;;6.60;2.65;;;4.40;99.90;;;;;;5015562;28;20045;-64
2022/04/02 02:57:39;;;;;;;5.38;2.42;;;4.40;99.90;;;;;;5016285;28;20046;-66
2022/04/02 03:00:06;;;;;;;5.30;1.95;;;4.40;99.90;;;;;;5015311;28;20434;-66
2022/04/02 03:02:32;;;;;;;11.18;3.60;;;4.40;99.90;;;;;;5003493;28;20064;-65
2022/04/02 03:04:58;;;;;;;5.93;2.58;;;4.50;99.90;;;;;;5015277;28;20030;-64
2022/04/02 03:07:23;;;;;;;5.10;2.30;;;4.40;99.90;;;;;;5015043;28;20088;-65
2022/04/02 03:09:49;;;;;;;10.70;2.38;;;4.40;99.90;;;;;;5024900;28;20081;-65
2022/04/02 03:12:14;;;;;;;4.40;1.80;;;4.40;99.90;;;;;;5030774;28;20037;-66
2022/04/02 03:14:40;;;;;;;9.23;2.63;;;4.40;99.90;;;;;;5015500;28;20046;-65
2022/04/02 03:17:05;;;;;;;5.40;2.67;;;4.40;99.90;;;;;;5015440;28;20037;-65
2022/04/02 03:19:31;;;;;;;8.48;2.95;;;4.40;99.90;;;;;;5015099;28;20052;-66
2022/04/02 03:21:57;;;;;;;7.47;2.83;;;4.30;99.90;;;;;;5015895;28;20041;-65
2022/04/02 03:24:22;;;;;;;9.23;2.38;;;4.30;99.90;;;;;;5014757;28;20084;-63
2022/04/02 03:26:48;;;;;;;4.80;1.52;;;4.30;99.90;;;;;;5015058;28;20050;-66
2022/04/02 03:29:13;;;;;;;5.35;2.03;;;4.20;99.90;;;;;;5015101;28;20033;-65
2022/04/02 03:31:39;;;;;;;9.82;2.08;;;4.10;99.90;;;;;;5014584;28;20021;-66
2022/04/02 03:34:05;;;;;;;7.40;2.20;;;4.10;99.90;;;;;;5014928;28;20478;-66
2022/04/02 03:36:30;;;;;;;5.22;2.20;;;4.00;99.90;;;;;;5014518;28;20030;-67
2022/04/02 03:38:56;;;;;;;7.40;2.70;;;4.00;99.90;;;;;;5015123;28;20029;-65
2022/04/02 03:41:23;;;;;;;7.47;2.53;;;3.90;99.90;;;;;;5015312;28;20033;-64
2022/04/02 03:43:51;;;;;;;4.50;1.67;;;3.90;99.90;;;;;;5014824;28;20049;-64
2022/04/02 03:49:01;;;;;;;6.43;2.53;;;3.90;99.90;;;;;;5014821;28;20048;-65
2022/04/02 03:51:26;;;;;;;6.10;2.30;;;3.80;99.90;;;;;;5014713;28;20042;-66
2022/04/02 03:53:52;;;;;;;15.57;4.07;;;3.80;99.90;;;;;;5014767;28;20080;-65
2022/04/02 03:56:17;;;;;;;6.07;2.22;;;3.70;99.90;;;;;;5015304;28;20065;-66
2022/04/02 03:58:43;;;;;;;9.88;2.58;;;3.70;99.90;;;;;;5014565;28;20112;-66
2022/04/02 04:01:08;;;;;;;10.77;2.67;;;3.60;99.90;;;;;;5014688;28;20433;-65
2022/04/02 04:03:34;;;;;;;6.70;2.30;;;3.60;99.90;;;;;;5014845;28;20438;-66
2022/04/02 04:06:00;;;;;;;6.20;2.25;;;3.50;99.90;;;;;;5014214;28;20040;-66
2022/04/02 04:08:26;;;;;;;6.60;2.50;;;3.50;99.90;;;;;;5013137;28;20060;-66
2022/04/02 04:10:51;;;;;;;6.95;2.38;;;3.50;99.90;;;;;;5013779;28;20053;-65
2022/04/02 04:13:17;;;;;;;4.57;2.22;;;3.40;99.90;;;;;;5013453;28;20038;-65
2022/04/02 04:15:43;;;;;;;9.65;2.67;;;3.40;99.90;;;;;;5014188;28;20057;-65
2022/04/02 04:18:08;;;;;;;6.28;2.92;;;3.40;99.90;;;;;;5014087;28;20042;-65
2022/04/02 04:20:35;;;;;;;7.22;2.20;;;3.30;99.90;;;;;;5014195;28;20037;-64
2022/04/02 04:23:00;;;;;;;6.88;3.35;;;3.30;99.90;;;;;;5014016;28;20034;-65
2022/04/02 04:25:26;;;;;;;5.32;2.35;;;3.30;99.90;;;;;;5013830;28;20056;-63
2022/04/02 04:27:51;;;;;;;12.07;3.00;;;3.20;99.90;;;;;;5014430;28;20030;-66
2022/04/02 04:30:17;;;;;;;6.03;2.15;;;3.20;99.90;;;;;;5014227;28;20112;-65
2022/04/02 04:32:42;;;;;;;8.18;2.42;;;3.20;99.90;;;;;;5013773;28;20084;-66
2022/04/02 04:35:09;;;;;;;7.20;2.33;;;3.20;99.90;;;;;;5013811;28;20057;-65
2022/04/02 04:37:35;;;;;;;6.32;2.53;;;3.20;99.90;;;;;;5013503;28;20112;-66
2022/04/02 04:40:02;;;;;;;6.28;2.10;;;3.10;99.90;;;;;;5014387;28;20030;-67
2022/04/02 04:42:28;;;;;;;7.18;2.30;;;3.10;99.90;;;;;;5011700;28;20076;-65
2022/04/02 04:44:53;;;;;;;6.88;2.17;;;3.10;99.90;;;;;;5013763;28;20494;-66
2022/04/02 04:47:19;;;;;;;5.28;2.28;;;3.10;99.90;;;;;;5013593;28;20030;-64
2022/04/02 04:49:44;;;;;;;4.88;2.53;;;3.10;99.90;;;;;;5013647;28;20087;-64
2022/04/02 04:52:10;;;;;;;11.75;2.80;;;3.10;99.90;;;;;;5009040;28;20085;-66
2022/04/02 04:54:35;;;;;;;5.18;2.38;;;3.10;99.90;;;;;;4998797;28;20123;-66
2022/04/02 04:57:01;;;;;;;4.30;1.95;;;3.00;99.90;;;;;;5012552;28;20041;-63
2022/04/02 04:59:26;;;;;;;7.45;2.70;;;3.00;99.90;;;;;;5013458;28;20389;-67
2022/04/02 05:01:52;;;;;;;6.88;1.80;;;3.00;99.90;;;;;;5012992;28;20458;-65
2022/04/02 05:04:18;;;;;;;4.65;2.35;;;3.00;99.90;;;;;;5012805;28;20040;-65
2022/04/02 05:06:44;;;;;;;6.20;2.20;;;3.00;99.90;;;;;;5011190;28;20145;-63
2022/04/02 05:09:10;;;;;;;7.53;2.55;;;3.00;99.90;;;;;;5013542;28;20116;-65
2022/04/02 05:11:36;;;;;;;4.07;1.75;;;3.00;99.90;;;;;;5019129;28;20033;-65
2022/04/02 05:14:01;;;;;;;3.50;1.83;;;3.00;99.90;;;;;;5013418;28;20092;-64
2022/04/02 05:16:27;;;;;;;6.22;2.40;;;3.00;99.90;;;;;;5013655;28;20439;-66
2022/04/02 05:18:53;;;;;;;7.20;2.50;;;3.00;99.90;;;;;;5013065;28;20033;-66
2022/04/02 05:21:19;;;;;;;5.97;2.42;;;3.10;99.90;;;;;;5012204;28;20085;-66
2022/04/02 05:23:45;;;;;;;7.57;2.88;;;3.10;99.90;;;;;;5012965;28;20053;-65
2022/04/02 05:26:10;;;;;;;4.20;2.38;;;3.10;99.90;;;;;;5012543;28;20054;-64
2022/04/02 05:28:36;;;;;;;9.73;2.50;;;3.20;99.90;;;;;;5011104;28;20030;-66
2022/04/02 05:31:02;;;;;;;4.90;2.58;;;3.30;99.90;;;;;;5012222;28;20133;-66
2022/04/02 05:33:28;;;;;;;4.25;2.08;;;3.30;99.90;;;;;;5012116;28;20029;-64
2022/04/02 05:35:53;;;;;;;4.70;2.78;;;3.40;99.90;;;;;;5012933;28;20045;-64
2022/04/02 05:38:19;;;;;;;5.07;2.72;;;3.40;99.90;;;;;;5012021;28;20046;-64
2022/04/02 05:40:45;;;;;;;4.13;1.80;;;3.40;99.90;;;;;;5013130;28;20030;-66
2022/04/02 05:43:10;;;;;;;7.32;3.33;;;3.40;99.90;;;;;;5012692;28;20073;-64
2022/04/02 05:45:36;;;;;;;6.03;2.63;;;3.50;99.90;;;;;;5012689;28;20022;-65
2022/04/02 05:48:02;;;;;;;6.32;2.45;;;3.50;99.90;;;;;;5011827;28;20116;-64
2022/04/02 05:50:27;;;;;;;5.85;3.15;;;3.50;99.90;;;;;;5012882;28;20033;-67
2022/04/02 05:52:53;;;;;;;4.85;2.45;;;3.50;99.90;;;;;;5012505;28;20033;-66
2022/04/02 05:55:19;;;;;;;8.27;2.97;;;3.50;99.90;;;;;;5012617;28;20069;-63
2022/04/02 05:57:46;;;;;;;5.82;2.88;;;3.50;99.90;;;;;;5011975;28;20109;-64
2022/04/02 06:00:15;;;;;;;8.32;3.08;;;3.50;99.90;;;;;;5012054;28;20529;-65
2022/04/02 06:02:41;;;;;;;6.15;1.85;;;3.50;99.90;;;;;;4994680;28;20474;-65
2022/04/02 06:05:08;;;;;;;7.47;2.63;;;3.50;99.90;;;;;;5011521;28;20021;-65
2022/04/02 06:07:34;;;;;;;4.05;2.35;;;3.50;99.90;;;;;;5011824;28;20053;-65
2022/04/02 06:10:02;;;;;;;5.40;2.60;;;3.50;99.90;;;;;;5011014;28;20442;-65
2022/04/02 06:12:30;;;;;;;9.90;2.40;;;3.50;99.90;;;;;;5012147;28;20022;-66
2022/04/02 06:14:56;;;;;;;4.60;2.70;;;3.50;99.90;;;;;;5012142;28;20042;-65
2022/04/02 06:17:22;;;;;;;8.60;3.08;;;3.60;99.90;;;;;;5012677;28;20124;-66
2022/04/02 06:19:47;;;;;;;3.58;1.58;;;3.60;99.90;;;;;;5011902;28;20093;-64
2022/04/02 06:22:13;;;;;;;8.00;2.90;;;3.60;99.90;;;;;;5011932;28;20038;-64
2022/04/02 06:24:38;;;;;;;7.97;2.60;;;3.70;99.90;;;;;;5011624;28;20033;-64
2022/04/02 06:27:04;;;;;;;6.78;2.38;;;3.70;99.90;;;;;;5012167;28;20065;-64
2022/04/02 06:29:30;;;;;;;3.30;1.55;;;3.80;99.90;;;;;;5012123;28;20030;-66
2022/04/02 06:31:55;;;;;;;9.77;2.50;;;3.90;99.90;;;;;;5011459;28;20036;-64
2022/04/02 06:34:22;;;;;;;4.13;1.90;;;4.00;99.90;;;;;;5012077;28;20041;-66
2022/04/02 06:36:47;;;;;;;6.10;1.88;;;4.00;99.90;;;;;;5012120;28;20478;-65
2022/04/02 06:39:13;;;;;;;6.15;2.55;;;4.10;99.90;;;;;;5012050;28;20028;-66
2022/04/02 06:41:40;;;;;;;3.97;1.60;;;4.20;99.90;;;;;;5012097;28;20472;-65
2022/04/02 06:44:08;;;;;;;5.13;1.88;;;4.30;99.90;;;;;;5011459;28;20037;-63
2022/04/02 06:46:37;;;;;;;8.57;2.30;;;4.40;99.90;;;;;;5011859;28;20108;-65
2022/04/02 06:49:04;;;;;;;7.15;2.75;;;4.40;99.90;;;;;;5011781;28;20061;-66
2022/04/02 06:51:30;;;;;;;5.20;2.17;;;4.60;99.90;;;;;;5011324;28;20026;-65
2022/04/02 06:53:55;;;;;;;3.80;1.35;;;4.60;99.90;;;;;;5012197;28;20519;-65
2022/04/02 06:56:21;;;;;;;4.97;1.58;;;4.70;99.90;;;;;;5009698;28;20041;-65
2022/04/02 06:58:47;;;;;;;3.80;1.80;;;4.80;99.90;;;;;;5011519;28;20034;-65
2022/04/02 07:01:12;;;;;;;7.25;2.08;;;4.90;99.90;;;;;;5010781;28;20026;-64
2022/04/02 07:03:38;;;;;;;8.80;1.70;;;5.00;99.90;;;;;;5012145;28;20370;-67
2022/04/02 07:06:04;;;;;;;2.38;1.20;;;5.10;99.90;;;;;;5012212;28;20034;-65
2022/04/02 07:08:30;;;;;;;4.35;1.40;;;5.20;99.90;;;;;;5011922;28;20037;-67
2022/04/02 07:10:56;;;;;;;5.38;1.88;;;5.30;99.90;;;;;;5011568;28;20038;-66
2022/04/02 07:13:24;;;;;;;3.28;1.38;;;5.40;99.90;;;;;;5010858;28;20034;-66
2022/04/02 07:15:50;;;;;;;4.15;1.30;;;5.50;99.90;;;;;;5011520;28;20125;-64
2022/04/02 07:18:16;;;;;;;2.67;1.55;;;5.50;99.90;;;;;;5011618;28;20113;-67
2022/04/02 07:20:41;;;;;;;7.05;1.67;;;5.60;99.90;;;;;;5013519;28;20049;-67
2022/04/02 07:23:09;;;;;;;2.92;1.35;;;5.80;99.90;;;;;;5014744;28;20371;-65
2022/04/02 07:25:39;;;;;;;3.40;1.20;;;6.00;99.90;;;;;;5012457;28;20398;-67
2022/04/02 07:28:06;;;;;;;1.70;1.20;;;6.10;99.90;;;;;;5013514;28;20469;-64
2022/04/02 07:30:33;;;;;;;2.33;1.60;;;6.20;99.90;;;;;;5013377;28;20117;-66
2022/04/02 07:32:59;;;;;;;5.32;1.35;;;6.40;99.90;;;;;;5015133;28;20387;-66
2022/04/02 07:35:27;;;;;;;5.10;1.67;;;6.60;99.80;;;;;;5015544;28;20037;-65
2022/04/02 07:37:59;;;;;;;7.20;1.60;;;7.00;98.00;;;;;;5013000;28;20033;-64
2022/04/02 07:40:28;;;;;;;4.43;1.20;;;7.30;97.60;;;;;;5006756;28;20026;-65
2022/04/02 07:43:31;;;;;;;3.45;1.42;;;7.90;96.80;;;;;;5006874;28;20279;-66
2022/04/02 07:46:10;;;;;;;;;;;8.50;94.80;;;;;;5013372;28;20025;-63
2022/04/02 07:48:41;;;;;;;1.65;0.80;;;9.10;94.20;;;;;;5002391;28;19909;-65
2022/04/02 07:51:11;;;;;;;4.22;1.65;;;9.80;93.00;;;;;;5006786;28;20026;-64
2022/04/02 07:53:53;;;;;;;2.67;1.08;;;10.40;91.90;;;;;;5006870;28;20048;-65
2022/04/02 07:56:30;;;;;;;3.65;1.00;;;11.20;90.60;;;;;;5011526;28;20482;-64
2022/04/02 07:59:01;;;;;;;5.90;1.48;;;11.20;86.30;;;;;;5013988;28;20045;-65
2022/04/02 08:01:26;;;;;;;3.38;1.30;;;10.90;86.40;;;;;;5013633;28;20030;-65
2022/04/02 08:03:52;;;;;;;3.08;1.33;;;10.60;88.60;;;;;;5013734;28;20072;-66
2022/04/02 08:06:19;;;;;;;4.22;1.50;;;10.60;89.50;;;;;;5014197;28;20045;-67
2022/04/02 08:08:45;;;;;;;5.68;1.63;;;10.60;86.80;;;;;;5014295;28;20049;-65
2022/04/02 08:11:11;;;;;;;5.85;1.58;;;10.50;85.10;;;;;;5014369;28;20390;-67
2022/04/02 08:13:41;;;;;;;4.90;1.83;;;10.20;85.30;;;;;;5014502;28;20034;-67
2022/04/02 08:16:10;;;;;;;4.97;2.08;;;9.80;85.50;;;;;;5013523;28;20394;-67
2022/04/02 08:18:39;;;;;;;4.57;1.90;;;9.50;87.60;;;;;;5014137;28;20037;-67
2022/04/02 08:21:06;;;;;;;6.38;1.80;;;9.20;88.10;;;;;;5014282;28;20093;-66
2022/04/02 08:23:32;;;;;;;3.17;1.58;;;8.90;90.30;;;;;;5013652;28;20095;-65
2022/04/02 08:26:22;;;;;;;4.72;1.63;;;9.00;89.50;;;;;;5013839;28;20474;-66
2022/04/02 08:29:18;;;;;;;2.78;1.17;;;9.00;90.00;;;;;;5014319;28;20532;-66
2022/04/02 08:31:57;;;;;;;3.15;1.98;;;8.80;88.00;;;;;;5012775;28;20033;-65
2022/04/02 08:34:47;;;;;;;3.60;1.42;;;8.50;89.70;;;;;;5013219;28;20617;-66
2022/04/02 08:37:15;;;;;;;3.60;1.70;;;8.30;89.70;;;;;;5013002;28;20040;-65
2022/04/02 08:39:53;;;;;;;2.97;1.50;;;8.40;90.20;;;;;;5003657;28;20026;-66
2022/04/02 08:42:51;;;;;;;4.00;1.73;;;9.00;88.50;;;;;;4994957;28;20026;-66
2022/04/02 08:45:37;;;;;;;3.92;1.63;;;9.70;89.00;;;;;;5002197;28;20069;-66
2022/04/02 08:48:28;;;;;;;3.90;1.40;;;10.30;88.80;;;;;;5013266;28;20040;-66
2022/04/02 08:50:58;;;;;;;3.33;1.67;;;11.10;87.10;;;;;;5013848;28;20064;-65
2022/04/02 08:53:43;;;;;;;2.40;1.60;;;11.20;87.80;;;;;;5014189;28;20217;-65
2022/04/02 08:56:10;;;;;;;2.33;1.35;;;10.80;87.00;;;;;;5013210;28;20498;-63
2022/04/02 08:59:06;;;;;;;7.20;2.67;;;10.40;89.20;;;;;;5012951;28;20032;-64
2022/04/02 09:01:49;;;;;;;7.05;2.38;;;9.80;90.50;;;;;;5007770;28;20516;-65
2022/04/02 09:04:18;;;;;;;5.03;2.10;;;9.70;91.40;;;;;;5014343;28;20127;-64
2022/04/02 09:06:50;;;;;;;3.75;1.67;;;9.80;91.40;;;;;;5011353;28;20029;-65
2022/04/02 09:09:53;;;;;;;6.05;1.90;;;9.70;89.40;;;;;;5013703;28;20022;-66
2022/04/02 09:12:38;;;;;;;5.80;1.48;;;9.30;85.90;;;;;;5013794;28;20421;-64
2022/04/02 09:15:13;;;;;;;3.92;1.75;;;8.80;84.60;;;;;;5011080;28;20038;-66
2022/04/02 09:18:03;;;;;;;2.28;1.20;;;8.40;85.50;;;;;;5008101;28;20865;-63
2022/04/02 09:20:46;;;;;;;3.15;1.48;;;8.40;85.30;;;;;;5015002;28;20083;-64
2022/04/02 09:23:21;;;;;;;5.10;2.05;;;8.40;84.90;;;;;;5030305;28;20029;-64
2022/04/02 09:25:55;;;;;;;6.03;1.58;;;8.30;85.60;;;;;;5001443;28;20152;-66
2022/04/02 09:28:56;;;;;;;7.43;2.05;;;9.10;85.10;;;;;;5019814;28;20381;-64
2022/04/02 09:31:33;;;;;;;4.80;1.38;;;10.40;81.60;;;;;;5011115;28;20107;-64
2022/04/02 09:34:30;;;;;;;2.78;1.45;;;12.00;78.30;;;;;;5012689;28;20091;-64
2022/04/02 09:37:29;;;;;;;5.35;1.50;;;12.70;74.40;;;;;;5021516;28;20029;-63
2022/04/02 09:40:08;;;;;;;2.45;1.40;;;13.40;71.60;;;;;;5023573;28;20113;-64
2022/04/02 09:42:36;;;;;;;5.75;1.85;;;13.40;69.60;;;;;;5013263;28;20026;-64
2022/04/02 09:45:03;;;;;;;2.40;1.95;;;12.90;70.50;;;;;;5010672;28;20379;-67
2022/04/02 09:47:40;;;;;;;2.28;1.40;;;12.70;69.40;;;;;;5028061;28;20026;-66
2022/04/02 09:50:09;;;;;;;1.25;1.10;;;12.70;69.80;;;;;;5011845;28;20466;-67
2022/04/02 09:52:41;;;;;;;3.17;1.50;;;12.90;69.70;;;;;;5012013;28;20092;-66
2022/04/02 09:55:09;;;;;;;;;;;13.70;67.50;;;;;;5014740;28;20478;-66
2022/04/02 09:57:56;;;;;;;3.03;1.55;;;14.80;64.90;;;;;;5012561;28;19918;-65
2022/04/02 10:00:29;;;;;;;4.07;1.65;;;15.30;63.40;;;;;;5011485;28;20465;-64
2022/04/02 10:03:23;;;;;;;3.85;1.52;;;14.70;63.20;;;;;;5014467;28;20470;-65
2022/04/02 10:05:57;;;;;;;3.05;1.48;;;13.80;62.70;;;;;;5017585;28;20025;-65
2022/04/02 10:09:00;;;;;;;3.03;1.35;;;12.80;65.20;;;;;;5020263;28;20466;-64
2022/04/02 10:11:28;;;;;;;2.97;1.35;;;12.90;65.50;;;;;;5012038;28;20163;-65
2022/04/02 10:13:58;;;;;;;3.67;1.42;;;12.70;66.90;;;;;;5020818;28;20022;-66
2022/04/02 10:16:25;;;;;;;2.97;1.10;;;12.10;67.70;;;;;;5012706;28;20037;-65
2022/04/02 10:18:53;;;;;;;3.33;1.75;;;11.50;67.60;;;;;;5012488;28;20115;-66
2022/04/02 10:21:20;;;;;;;3.40;1.45;;;11.00;70.40;;;;;;5012510;28;20077;-67
2022/04/02 10:24:16;;;;;;;3.33;1.58;;;11.40;67.80;;;;;;5012250;28;20478;-68
2022/04/02 10:26:47;;;;;;;3.08;1.50;;;11.50;67.60;;;;;;5003707;28;20053;-65
2022/04/02 10:29:13;;;;;;;4.47;2.05;;;11.10;68.00;;;;;;5030555;28;20030;-65
2022/04/02 10:31:53;;;;;;;8.63;1.55;;;10.70;68.60;;;;;;5012659;28;20037;-63
2022/04/02 10:34:38;;;;;;;2.78;1.33;;;10.30;71.30;;;;;;5012040;28;20594;-66
2022/04/02 10:37:15;;;;;;;3.60;1.50;;;10.00;72.30;;;;;;5010902;28;20034;-66
2022/04/02 10:40:04;;;;;;;2.15;1.10;;;10.70;69.40;;;;;;5009186;28;20061;-64
2022/04/02 10:42:33;;;;;;;3.17;1.30;;;11.00;68.90;;;;;;5003959;28;20036;-67
2022/04/02 10:45:04;;;;;;;2.03;1.10;;;11.70;67.60;;;;;;5011497;28;20018;-64
2022/04/02 10:47:30;;;;;;;3.67;1.17;;;12.60;67.70;;;;;;5011915;28;20109;-66
2022/04/02 10:50:07;;;;;;;2.75;1.10;;;13.50;65.80;;;;;;5011979;28;20482;-65
2022/04/02 10:52:34;;;;;;;1.85;1.27;;;14.30;63.00;;;;;;5012105;28;20037;-66
2022/04/02 10:55:01;;;;;;;2.47;1.40;;;15.00;61.70;;;;;;5012890;28;20087;-66
2022/04/02 10:57:32;;;;;;;4.68;1.30;;;15.60;60.50;;;;;;5016255;28;20495;-66
2022/04/02 11:00:10;;;;;;;2.85;1.27;;;16.20;58.80;;;;;;5016265;28;20030;-65
2022/04/02 11:02:41;;;;;;;1.45;1.05;;;16.80;57.70;;;;;;5006674;28;20124;-65
2022/04/02 11:05:13;;;;;;;2.53;1.17;;;17.30;57.60;;;;;;5015917;28;20033;-65
2022/04/02 11:07:44;;;;;;;5.95;1.70;;;17.40;57.50;;;;;;5014574;28;20122;-66
2022/04/02 11:10:15;;;;;;;4.97;1.17;;;17.80;56.30;;;;;;5016215;28;20045;-65
2022/04/02 11:12:41;;;;;;;1.50;1.20;;;18.10;56.70;;;;;;5015459;28;20037;-64
2022/04/02 11:15:24;;;;;;;4.65;1.52;;;18.20;53.70;;;;;;5016079;28;20046;-67
2022/04/02 11:17:51;;;;;;;;;;;18.40;55.40;;;;;;5011510;28;20379;-66
2022/04/02 11:20:20;;;;;;;1.80;1.23;;;18.70;53.10;;;;;;4996303;28;19905;-65
2022/04/02 11:22:51;;;;;;;3.60;1.10;;;18.60;52.60;;;;;;5004818;28;20029;-67
2022/04/02 11:25:21;;;;;;;2.30;1.05;;;18.40;53.30;;;;;;5015719;28;20036;-64
2022/04/02 11:27:50;;;;;;;4.22;1.35;;;17.80;54.80;;;;;;5015389;28;20037;-65
2022/04/02 11:30:17;;;;;;;5.53;1.60;;;17.30;54.50;;;;;;5015373;28;20026;-65
2022/04/02 11:32:50;;;;;;;4.80;2.00;;;17.50;54.80;;;;;;5013887;28;20117;-67
2022/04/02 11:35:20;;;;;;;2.10;0.90;;;17.80;54.40;;;;;;5030571;28;20497;-65
2022/04/02 11:38:14;;;;;;;1.70;0.98;;;17.90;53.20;;;;;;5015221;28;20032;-64
2022/04/02 11:40:49;;;;;;;6.47;1.33;;;16.80;54.30;;;;;;5015376;28;20096;-65
2022/04/02 11:43:17;;;;;;;4.20;1.40;;;15.20;56.20;;;;;;5015010;28;20033;-65
2022/04/02 11:45:46;;;;;;;6.13;1.08;;;14.40;58.10;;;;;;5013928;28;20113;-67
2022/04/02 11:48:17;;;;;;;3.22;0.98;;;14.00;58.00;;;;;;5014908;28;20036;-66
2022/04/02 11:50:44;;;;;;;4.40;0.95;;;13.40;59.80;;;;;;5014552;28;20026;-66
2022/04/02 11:53:11;;;;;;;2.58;1.20;;;12.70;59.70;;;;;;5014419;28;20147;-63
2022/04/02 11:55:38;;;;;;;3.17;1.00;;;12.10;59.70;;;;;;5014651;28;20379;-65
2022/04/02 11:58:06;;;;;;;1.70;1.08;;;11.70;60.50;;;;;;5014639;28;20022;-64
2022/04/02 12:00:37;;;;;;;1.85;1.05;;;11.40;63.10;;;;;;5014159;28;20053;-66
2022/04/02 12:03:06;;;;;;;3.97;1.20;;;11.90;62.40;;;;;;5014710;28;20029;-64
2022/04/02 12:05:45;;;;;;;6.03;3.00;;;12.30;60.70;;;;;;5014719;28;20022;-65
2022/04/02 12:08:25;;;;;;;8.23;3.17;;;12.80;59.70;;;;;;5009919;28;20042;-64
2022/04/02 12:10:50;;;;;;;1.33;0.90;;;13.80;59.60;;;;;;4995124;28;20031;-65
2022/04/02 12:13:16;;;;;;;3.40;1.30;;;14.60;58.10;;;;;;5028239;28;20030;-67
2022/04/02 12:16:08;;;;;;;3.30;1.02;;;14.30;57.90;;;;;;5013440;28;20100;-67
2022/04/02 12:18:49;;;;;;;3.38;1.27;;;13.70;59.00;;;;;;5014972;28;20038;-66
2022/04/02 12:21:16;;;;;;;5.00;1.10;;;13.00;59.10;;;;;;5013313;28;20029;-66
2022/04/02 12:23:59;;;;;;;3.15;1.20;;;12.50;59.60;;;;;;5032051;28;20039;-66
2022/04/02 12:26:25;;;;;;;2.35;1.20;;;11.90;60.20;;;;;;5013649;28;20483;-65
2022/04/02 12:28:57;;;;;;;3.00;1.20;;;11.40;61.10;;;;;;5023012;28;20079;-66
2022/04/02 12:31:27;;;;;;;3.72;1.10;;;11.20;62.30;;;;;;5027611;28;20478;-67
2022/04/02 12:33:54;;;;;;;4.20;1.50;;;11.00;63.00;;;;;;5010683;28;20035;-66
2022/04/02 12:36:29;;;;;;;3.63;1.00;;;11.20;63.40;;;;;;5013876;28;20044;-64
2022/04/02 12:39:09;;;;;;;5.10;1.85;;;12.10;62.70;;;;;;5013576;28;20471;-67
2022/04/02 12:41:49;;;;;;;3.13;1.17;;;13.30;61.50;;;;;;4998041;28;20022;-67
2022/04/02 12:44:23;;;;;;;3.20;1.20;;;14.30;59.10;;;;;;5012973;28;20529;-66
2022/04/02 12:46:49;;;;;;;3.30;1.40;;;14.10;59.50;;;;;;5012522;28;20117;-66
2022/04/02 12:49:29;;;;;;;4.30;1.10;;;13.30;60.00;;;;;;5013941;28;20117;-64
2022/04/02 12:52:11;;;;;;;3.45;1.10;;;12.30;59.30;;;;;;5020268;28;20030;-67
2022/04/02 12:54:43;;;;;;;1.20;1.10;;;11.40;61.60;;;;;;5019139;28;20116;-66
2022/04/02 12:57:13;;;;;;;4.53;1.20;;;10.60;62.60;;;;;;5020961;28;20030;-67
2022/04/02 12:59:44;;;;;;;1.92;1.38;;;10.20;62.20;;;;;;5020785;28;20057;-66
2022/04/02 13:02:16;;;;;;;4.53;0.90;;;10.30;63.80;;;;;;5018156;28;20033;-67
2022/04/02 13:04:48;;;;;;;4.03;1.02;;;10.60;62.80;;;;;;5023733;28;20104;-65
2022/04/02 13:07:20;;;;;;;3.70;1.33;;;10.90;62.50;;;;;;5017406;28;20030;-64
2022/04/02 13:09:49;;;;;;;1.90;1.20;;;11.00;62.50;;;;;;5016497;28;20030;-65
2022/04/02 13:12:22;;;;;;;3.42;0.90;;;11.00;63.50;;;;;;5012459;28;20038;-65
2022/04/02 13:15:03;;;;;;;3.63;0.80;;;10.90;63.70;;;;;;5013763;28;20038;-68